Ora Direzione Vento Velocita' Vento Media Vento Raffica Max. Temperatura Wind Chill Pioggia Pressione
10:01:55.0329 °(NNW)1.8 Kts2.7 Kts4.7 Kts7.1 °C7.1 °C0.2 mm1025.0 Hpa
09:41:42.0310 °(NW)1.0 Kts2.9 Kts4.7 Kts6.9 °C6.9 °C0.2 mm1024.9 Hpa
09:21:38.0312 °(NW)1.8 Kts2.1 Kts4.7 Kts6.8 °C6.8 °C0.2 mm1024.9 Hpa
09:01:32.051 °(NE)2.7 Kts2.9 Kts4.7 Kts6.8 °C6.1 °C0.2 mm1024.9 Hpa
08:41:23.0161 °(SSE)0.0 Kts0.0 Kts4.7 Kts6.7 °C6.7 °C0.2 mm1024.8 Hpa
08:20:59.0326 °(NW)0.0 Kts0.0 Kts4.7 Kts6.6 °C6.6 °C0.2 mm1024.7 Hpa
08:00:10.0355 °(N)2.7 Kts3.3 Kts4.7 Kts6.3 °C5.5 °C0.2 mm1024.4 Hpa
07:39:30.093 °(E)1.0 Kts1.0 Kts4.7 Kts6.6 °C6.6 °C0.2 mm1024.2 Hpa
07:21:37.0144 °(SE)0.0 Kts0.0 Kts4.7 Kts6.5 °C6.5 °C0.2 mm1024.0 Hpa
07:01:34.0221 °(SW)1.0 Kts0.8 Kts4.7 Kts6.4 °C6.4 °C0.2 mm1023.8 Hpa
06:41:45.0295 °(WNW)0.0 Kts0.2 Kts4.7 Kts6.5 °C6.5 °C0.0 mm1023.8 Hpa
06:21:49.059 °(ENE)0.0 Kts0.0 Kts4.7 Kts6.5 °C6.5 °C0.0 mm1023.7 Hpa
06:01:40.087 °(E)1.8 Kts2.1 Kts4.7 Kts6.7 °C6.7 °C0.0 mm1023.7 Hpa
05:41:51.0226 °(SW)0.0 Kts0.0 Kts4.7 Kts6.7 °C6.7 °C0.0 mm1023.7 Hpa
05:19:45.0110 °(ESE)0.0 Kts0.0 Kts4.7 Kts6.6 °C6.6 °C0.0 mm1023.7 Hpa
04:59:51.0212 °(SSW)0.0 Kts0.4 Kts4.7 Kts6.7 °C6.7 °C0.0 mm1023.6 Hpa
04:39:50.0109 °(ESE)1.8 Kts1.6 Kts4.7 Kts7.1 °C7.1 °C0.0 mm1023.6 Hpa
04:19:52.045 °(NE)0.0 Kts0.0 Kts4.7 Kts7.2 °C7.2 °C0.0 mm1023.7 Hpa
03:59:54.0293 °(WNW)1.0 Kts0.0 Kts4.7 Kts7.2 °C7.2 °C0.0 mm1023.9 Hpa
03:39:42.0300 °(WNW)1.8 Kts0.6 Kts4.7 Kts7.2 °C7.2 °C0.0 mm1024.0 Hpa